• Join FlightAware (Why Join?)
  • Login
  • US Flag 
Rudolph Flight #1: Arrived! 
07:46AM EST


 

Airport Tracker/Info


-or-


 

Live Flight TrackerFlight Track Log ✈ GJS3710 ✈ 05-May-2013 ✈ KORD - KALB

Flight Track Log - Related Links

Times and Time Zones

All times are in EDT time to prevent confusion due to time zone crossing. See the GJS3710 flight status page for this flight to view local times or setup timezone preferences in your user account.

Time Position Orientation Groundspeed Altitude Reporting Facility
EDT Latitude Longitude Course Direction KTS MPH feet Rate Location/Type
09:11PM 42.1770 -87.3193 66° East  Level FlightAware Approximate
09:12PM 42.2271 -87.1688 66° East  Level FlightAware Approximate
09:13PM 42.2667 -87.0152 90° East  Level FlightAware Approximate
09:14PM 42.2739 -86.8503 86° East  Level FlightAware Approximate
09:15PM 42.2817 -86.6855 86° East  Level FlightAware Approximate
09:16PM 42.2993 -86.5221 80° East  Level FlightAware Approximate
09:17PM 42.3000 -86.3570 90° East  Level FlightAware Approximate
09:18PM 42.3001 -86.1917 90° East  Level FlightAware Approximate
09:19PM 42.3000 -86.0265 90° East  Level FlightAware Approximate
09:20PM 42.3001 -85.8613 90° East  Level FlightAware Approximate
09:21PM 42.3000 -85.6960 90° East  Level FlightAware Approximate
09:22PM 42.3001 -85.5308 90° East  Level FlightAware Approximate
09:23PM 42.3001 -85.3655 90° East  Level FlightAware Approximate
09:24PM 42.3000 -85.2003 90° East  Level FlightAware Approximate
09:25PM 42.3000 -85.0350 90° East  Level FlightAware Approximate
09:26PM 42.2834 -84.8812 90° East  Level FlightAware Approximate
09:27PM 42.2834 -84.7160 90° East  Level FlightAware Approximate
09:28PM 42.2834 -84.5508 90° East  Level FlightAware Approximate
09:29PM 42.2942 -84.3869 80° East  Level FlightAware Approximate
09:30PM 42.3161 -84.2244 80° East  Level FlightAware Approximate
09:31PM 42.3377 -84.0617 80° East  Level FlightAware Approximate
09:32PM 42.3591 -83.8989 80° East  Level FlightAware Approximate
09:33PM 42.3804 -83.7359 80° East  Level FlightAware Approximate
09:34PM 42.4005 -83.5728 86° East  Level FlightAware Approximate
09:35PM 42.4089 -83.4077 86° East  Level FlightAware Approximate
09:36PM 42.4169 -83.2425 88° East  Level FlightAware Approximate
09:37PM 42.4219 -83.0770 88° East  Level FlightAware Approximate
09:38PM 42.4267 -82.9116 88° East  Level FlightAware Approximate
09:39PM 42.4313 -82.7461 88° East  Level FlightAware Approximate
09:40PM 42.4356 -82.5807 88° East  Level FlightAware Approximate
09:41PM 42.4396 -82.4151 88° East  Level FlightAware Approximate
09:42PM 42.4435 -82.2496 88° East  Level FlightAware Approximate
09:43PM 42.4470 -82.0841 88° East  Level FlightAware Approximate
09:44PM 42.4504 -81.9185 88° East  Level FlightAware Approximate
09:45PM 42.4535 -81.7529 88° East  Level FlightAware Approximate
09:46PM 42.4564 -81.5873 89° East  Level FlightAware Approximate
09:47PM 42.4590 -81.4217 89° East  Level FlightAware Approximate
09:48PM 42.4614 -81.2561 89° East  Level FlightAware Approximate
09:49PM 42.4636 -81.0904 89° East  Level FlightAware Approximate
09:50PM 42.4655 -80.9248 89° East  Level FlightAware Approximate
09:51PM 42.4677 -80.7591 89° East  Level FlightAware Approximate
09:52PM 42.4704 -80.5934 89° East  Level FlightAware Approximate
09:53PM 42.4728 -80.4278 89° East  Level FlightAware Approximate
09:54PM 42.4750 -80.2621 89° East  Level FlightAware Approximate
09:55PM 42.4770 -80.0964 89° East  Level FlightAware Approximate
09:56PM 42.4788 -79.9307 89° East  Level FlightAware Approximate
09:57PM 42.4803 -79.7650 89° East  Level FlightAware Approximate
09:58PM 42.4815 -79.5993 89° East  Level FlightAware Approximate
09:59PM 42.4825 -79.4336 89° East  Level FlightAware Approximate
10:00PM 42.4833 -79.2679 90° East  Level FlightAware Approximate
10:01PM 42.4941 -79.1028 85° East  Level FlightAware Approximate
10:02PM 42.5047 -78.9377 85° East  Level FlightAware Approximate
10:03PM 42.5150 -78.7725 85° East  Level FlightAware Approximate
10:04PM 42.5252 -78.6072 85° East  Level FlightAware Approximate
10:05PM 42.5350 -78.4419 85° East  Level FlightAware Approximate
10:06PM 42.5447 -78.2765 85° East  Level FlightAware Approximate
10:07PM 42.5541 -78.1111 86° East  Level FlightAware Approximate
10:08PM 42.5633 -77.9457 86° East  Level FlightAware Approximate
10:09PM 42.5740 -77.7804 84° East  Level FlightAware Approximate
10:10PM 42.5855 -77.6151 85° East  Level FlightAware Approximate
10:11PM 42.5968 -77.4498 85° East  Level FlightAware Approximate
10:12PM 42.6078 -77.2845 85° East  Level FlightAware Approximate
10:13PM 42.6182 -77.1190 86° East  Level FlightAware Approximate
10:14PM 42.6262 -76.9533 86° East  Level FlightAware Approximate
10:15PM 42.6333 -76.7875 90° East  Level FlightAware Approximate
10:16PM 42.6394 -76.6218 84° East  Level FlightAware Approximate
10:17PM 42.6500 -76.4564 90° East  Level FlightAware Approximate
10:18PM 42.6516 -76.2904 77° East  Level FlightAware Approximate
10:19PM 42.6667 -76.1265 90° East  Level FlightAware Approximate
10:20PM 42.6667 -75.9603 90° East  Level FlightAware Approximate
10:21PM 42.6807 -75.7966 75° East  Level FlightAware Approximate
10:22PM 42.6834 -75.6309 90° East  Level FlightAware Approximate
10:23PM 42.6833 -75.4646 90° East  Level FlightAware Approximate
10:24PM 42.6909 -75.2988 85° East  Level FlightAware Approximate
10:25PM 42.7014 -75.1331 85° East  Level FlightAware Approximate
10:26PM 42.7116 -74.9674 85° East  Level FlightAware Approximate
10:27PM 42.7167 -74.8013 90° East  Level FlightAware Approximate
10:28PM 42.7167 -74.6349 90° East  Level FlightAware Approximate
10:29PM 42.7234 -74.4691 83° East  Level FlightAware Approximate
10:30PM 42.7334 -74.3035 90° East  Level FlightAware Approximate
10:31PM 42.7333 -74.1371 90° East  Level FlightAware Approximate
10:32PM 42.7333 -73.9707 90° East  Level FlightAware Approximate
10:33PM 42.7333 -73.8043 90° East  Level FlightAware Approximate
10:34PM 42.7333 -73.8000 90° East  Level FlightAware Approximate
10:35PM 42.7491 -73.8020 90° East  Level Estimated
10:36PM 42.7491 -73.8020 90° East  Level Estimated
10:37PM 42.7491 -73.8020 90° East  Level Estimated
10:38PM 42.7491 -73.8020 90° East  Level Estimated
10:39PM 42.7491 -73.8020 90° East  Level Estimated
10:40PM 42.7491 -73.8020 90° East  Level Estimated
10:41PM 42.7491 -73.8020 90° East  Level Estimated
10:42PM 42.7491 -73.8020 90° East  Level Estimated
10:43PM 42.7491 -73.8020 90° East  Level Estimated
10:44PM 42.7491 -73.8020 90° East  Level Estimated